Ash Grove, Nebraska
Current Conditions -  °F | °C
As of 9:15 PM on Tuesday 25 Nov 2014 (Local Time) from KHDE Reporting Station
Overcast Overcast  
Wind Chill:   Ceiling: 11000
Heat Index:   Visibility: 10mi
Dew Point: -3°   Wind: 8mph
Humidity: 59%   Direction: 330°NNW
Pressure: 29.9"   Gusts: NA
Location:  40.1734°N, 98.8989°W
Report Text: KHDE 260315Z AUTO 33007KT 10SM OVC110 05/M02 A2990 RMK AO2 T00501025
Loading
Personal Weather Stations






























Interactive Weather Map New forecast layout! Learn more

10-Day Weather Forecast

Advertisements
Track Severe Weather on mobile